sensor_id;sensor_type;location;lat;lon;timestamp;P1;durP1;ratioP1;P2;durP2;ratioP2
6519;SDS011;3293;51.690;5.982;2023-04-06T00:00:43;19.20;;;13.23;;
6519;SDS011;3293;51.690;5.982;2023-04-06T00:05:43;16.57;;;11.83;;
6519;SDS011;3293;51.690;5.982;2023-04-06T00:10:44;20.53;;;12.43;;
6519;SDS011;3293;51.690;5.982;2023-04-06T00:15:44;14.87;;;12.13;;
6519;SDS011;3293;51.690;5.982;2023-04-06T00:20:44;18.57;;;12.07;;
6519;SDS011;3293;51.690;5.982;2023-04-06T00:25:44;17.30;;;13.00;;
6519;SDS011;3293;51.690;5.982;2023-04-06T00:30:44;16.50;;;11.53;;
6519;SDS011;3293;51.690;5.982;2023-04-06T00:35:44;16.50;;;12.23;;
6519;SDS011;3293;51.690;5.982;2023-04-06T00:40:44;17.37;;;12.53;;
6519;SDS011;3293;51.690;5.982;2023-04-06T00:45:45;21.40;;;11.93;;
6519;SDS011;3293;51.690;5.982;2023-04-06T00:50:45;14.47;;;11.60;;
6519;SDS011;3293;51.690;5.982;2023-04-06T00:55:45;18.23;;;11.77;;
6519;SDS011;3293;51.690;5.982;2023-04-06T01:00:45;17.10;;;12.63;;
6519;SDS011;3293;51.690;5.982;2023-04-06T01:05:45;18.37;;;13.43;;
6519;SDS011;3293;51.690;5.982;2023-04-06T01:10:45;17.63;;;13.10;;
6519;SDS011;3293;51.690;5.982;2023-04-06T01:15:46;20.67;;;13.73;;
6519;SDS011;3293;51.690;5.982;2023-04-06T01:20:46;20.40;;;13.50;;
6519;SDS011;3293;51.690;5.982;2023-04-06T01:25:46;21.97;;;13.30;;
6519;SDS011;3293;51.690;5.982;2023-04-06T01:30:46;19.07;;;13.23;;
6519;SDS011;3293;51.690;5.982;2023-04-06T01:35:46;19.23;;;12.77;;
6519;SDS011;3293;51.690;5.982;2023-04-06T01:40:46;20.17;;;13.63;;
6519;SDS011;3293;51.690;5.982;2023-04-06T01:45:46;19.80;;;14.07;;
6519;SDS011;3293;51.690;5.982;2023-04-06T01:50:46;19.93;;;13.67;;
6519;SDS011;3293;51.690;5.982;2023-04-06T01:55:46;18.33;;;13.43;;
6519;SDS011;3293;51.690;5.982;2023-04-06T02:00:46;21.27;;;13.60;;
6519;SDS011;3293;51.690;5.982;2023-04-06T02:05:47;24.70;;;15.07;;
6519;SDS011;3293;51.690;5.982;2023-04-06T02:10:47;23.03;;;16.40;;
6519;SDS011;3293;51.690;5.982;2023-04-06T02:15:48;24.90;;;15.73;;
6519;SDS011;3293;51.690;5.982;2023-04-06T02:20:49;22.43;;;15.53;;
6519;SDS011;3293;51.690;5.982;2023-04-06T02:25:49;20.70;;;14.00;;
6519;SDS011;3293;51.690;5.982;2023-04-06T02:30:49;19.57;;;14.03;;
6519;SDS011;3293;51.690;5.982;2023-04-06T02:35:49;27.20;;;13.30;;
6519;SDS011;3293;51.690;5.982;2023-04-06T02:40:49;21.57;;;13.60;;
6519;SDS011;3293;51.690;5.982;2023-04-06T02:45:49;18.63;;;13.87;;
6519;SDS011;3293;51.690;5.982;2023-04-06T02:50:50;20.90;;;13.77;;
6519;SDS011;3293;51.690;5.982;2023-04-06T02:55:50;21.73;;;15.27;;
6519;SDS011;3293;51.690;5.982;2023-04-06T03:00:50;22.33;;;14.40;;
6519;SDS011;3293;51.690;5.982;2023-04-06T03:05:50;19.47;;;13.97;;
6519;SDS011;3293;51.690;5.982;2023-04-06T03:10:50;19.50;;;14.20;;
6519;SDS011;3293;51.690;5.982;2023-04-06T03:15:50;23.83;;;13.90;;
6519;SDS011;3293;51.690;5.982;2023-04-06T03:20:50;23.17;;;14.50;;
6519;SDS011;3293;51.690;5.982;2023-04-06T03:25:53;21.07;;;14.50;;
6519;SDS011;3293;51.690;5.982;2023-04-06T03:30:53;19.63;;;14.13;;
6519;SDS011;3293;51.690;5.982;2023-04-06T03:35:53;18.20;;;13.53;;
6519;SDS011;3293;51.690;5.982;2023-04-06T03:40:53;19.80;;;14.37;;
6519;SDS011;3293;51.690;5.982;2023-04-06T03:45:53;20.33;;;15.27;;
6519;SDS011;3293;51.690;5.982;2023-04-06T03:50:53;22.17;;;13.80;;
6519;SDS011;3293;51.690;5.982;2023-04-06T03:55:54;21.30;;;14.20;;
6519;SDS011;3293;51.690;5.982;2023-04-06T04:00:54;22.70;;;14.93;;
6519;SDS011;3293;51.690;5.982;2023-04-06T04:05:55;25.93;;;14.97;;
6519;SDS011;3293;51.690;5.982;2023-04-06T04:10:55;20.03;;;14.33;;
6519;SDS011;3293;51.690;5.982;2023-04-06T04:15:55;18.20;;;13.90;;
6519;SDS011;3293;51.690;5.982;2023-04-06T04:20:55;22.53;;;14.80;;
6519;SDS011;3293;51.690;5.982;2023-04-06T04:25:55;19.23;;;13.10;;
6519;SDS011;3293;51.690;5.982;2023-04-06T04:30:55;20.23;;;14.40;;
6519;SDS011;3293;51.690;5.982;2023-04-06T04:35:55;20.00;;;13.93;;
6519;SDS011;3293;51.690;5.982;2023-04-06T04:40:55;20.27;;;14.07;;
6519;SDS011;3293;51.690;5.982;2023-04-06T04:45:55;18.13;;;13.20;;
6519;SDS011;3293;51.690;5.982;2023-04-06T04:50:58;22.37;;;15.13;;
6519;SDS011;3293;51.690;5.982;2023-04-06T04:55:59;19.23;;;13.93;;
6519;SDS011;3293;51.690;5.982;2023-04-06T05:01:00;20.03;;;13.03;;
6519;SDS011;3293;51.690;5.982;2023-04-06T05:06:01;19.77;;;13.93;;
6519;SDS011;3293;51.690;5.982;2023-04-06T05:11:01;15.63;;;12.50;;
6519;SDS011;3293;51.690;5.982;2023-04-06T05:16:02;18.00;;;13.17;;
6519;SDS011;3293;51.690;5.982;2023-04-06T05:21:02;19.13;;;13.73;;
6519;SDS011;3293;51.690;5.982;2023-04-06T05:26:02;17.07;;;12.70;;
6519;SDS011;3293;51.690;5.982;2023-04-06T05:31:02;22.23;;;14.00;;
6519;SDS011;3293;51.690;5.982;2023-04-06T05:36:02;19.37;;;13.80;;
6519;SDS011;3293;51.690;5.982;2023-04-06T05:41:04;20.50;;;14.30;;
6519;SDS011;3293;51.690;5.982;2023-04-06T05:46:04;19.63;;;14.03;;
6519;SDS011;3293;51.690;5.982;2023-04-06T05:51:05;19.40;;;13.20;;
6519;SDS011;3293;51.690;5.982;2023-04-06T05:56:05;21.13;;;13.33;;
6519;SDS011;3293;51.690;5.982;2023-04-06T06:01:06;20.03;;;13.43;;
6519;SDS011;3293;51.690;5.982;2023-04-06T06:06:06;24.00;;;13.17;;
6519;SDS011;3293;51.690;5.982;2023-04-06T06:11:06;18.40;;;13.03;;
6519;SDS011;3293;51.690;5.982;2023-04-06T06:16:06;18.90;;;13.67;;
6519;SDS011;3293;51.690;5.982;2023-04-06T06:21:06;18.20;;;12.37;;
6519;SDS011;3293;51.690;5.982;2023-04-06T06:26:07;18.50;;;12.53;;
6519;SDS011;3293;51.690;5.982;2023-04-06T06:31:07;24.20;;;13.23;;
6519;SDS011;3293;51.690;5.982;2023-04-06T06:36:07;19.43;;;13.17;;
6519;SDS011;3293;51.690;5.982;2023-04-06T06:41:07;17.50;;;12.93;;
6519;SDS011;3293;51.690;5.982;2023-04-06T06:46:08;16.43;;;12.73;;
6519;SDS011;3293;51.690;5.982;2023-04-06T06:51:08;18.60;;;12.43;;
6519;SDS011;3293;51.690;5.982;2023-04-06T06:56:08;19.43;;;12.83;;
6519;SDS011;3293;51.690;5.982;2023-04-06T07:01:09;19.00;;;12.53;;
6519;SDS011;3293;51.690;5.982;2023-04-06T07:06:09;20.10;;;12.90;;
6519;SDS011;3293;51.690;5.982;2023-04-06T07:11:10;18.10;;;13.53;;
6519;SDS011;3293;51.690;5.982;2023-04-06T07:16:11;21.17;;;13.27;;
6519;SDS011;3293;51.690;5.982;2023-04-06T07:21:11;18.67;;;13.73;;
6519;SDS011;3293;51.690;5.982;2023-04-06T07:26:11;19.57;;;13.20;;
6519;SDS011;3293;51.690;5.982;2023-04-06T07:31:11;18.40;;;13.73;;
6519;SDS011;3293;51.690;5.982;2023-04-06T07:36:11;21.83;;;13.17;;
6519;SDS011;3293;51.690;5.982;2023-04-06T07:41:11;18.60;;;12.23;;
6519;SDS011;3293;51.690;5.982;2023-04-06T07:46:11;19.53;;;12.70;;
6519;SDS011;3293;51.690;5.982;2023-04-06T07:51:11;18.87;;;12.60;;
6519;SDS011;3293;51.690;5.982;2023-04-06T07:56:14;21.33;;;12.60;;
6519;SDS011;3293;51.690;5.982;2023-04-06T08:01:14;18.53;;;13.60;;
6519;SDS011;3293;51.690;5.982;2023-04-06T08:06:14;20.63;;;13.63;;
6519;SDS011;3293;51.690;5.982;2023-04-06T08:11:14;20.37;;;13.83;;
6519;SDS011;3293;51.690;5.982;2023-04-06T08:16:14;17.60;;;13.47;;
6519;SDS011;3293;51.690;5.982;2023-04-06T08:21:14;18.03;;;12.73;;
6519;SDS011;3293;51.690;5.982;2023-04-06T08:26:14;20.03;;;12.77;;
6519;SDS011;3293;51.690;5.982;2023-04-06T08:31:14;24.70;;;13.83;;
6519;SDS011;3293;51.690;5.982;2023-04-06T08:36:14;23.40;;;14.43;;
6519;SDS011;3293;51.690;5.982;2023-04-06T08:41:16;20.40;;;13.13;;
6519;SDS011;3293;51.690;5.982;2023-04-06T08:46:17;24.37;;;13.60;;
6519;SDS011;3293;51.690;5.982;2023-04-06T08:51:17;20.00;;;14.17;;
6519;SDS011;3293;51.690;5.982;2023-04-06T08:56:18;24.60;;;14.03;;
6519;SDS011;3293;51.690;5.982;2023-04-06T09:01:20;19.10;;;13.60;;
6519;SDS011;3293;51.690;5.982;2023-04-06T09:06:22;20.63;;;13.40;;
6519;SDS011;3293;51.690;5.982;2023-04-06T09:11:22;20.37;;;13.90;;
6519;SDS011;3293;51.690;5.982;2023-04-06T09:16:22;20.30;;;13.93;;
6519;SDS011;3293;51.690;5.982;2023-04-06T09:21:22;19.63;;;14.60;;
6519;SDS011;3293;51.690;5.982;2023-04-06T09:26:22;23.50;;;15.70;;
6519;SDS011;3293;51.690;5.982;2023-04-06T09:31:24;23.13;;;14.47;;
6519;SDS011;3293;51.690;5.982;2023-04-06T09:36:35;20.40;;;14.60;;
6519;SDS011;3293;51.690;5.982;2023-04-06T09:41:37;24.00;;;14.77;;
6519;SDS011;3293;51.690;5.982;2023-04-06T09:46:39;18.17;;;14.10;;
6519;SDS011;3293;51.690;5.982;2023-04-06T09:51:41;22.97;;;15.13;;
6519;SDS011;3293;51.690;5.982;2023-04-06T10:02:01;21.63;;;14.07;;
6519;SDS011;3293;51.690;5.982;2023-04-06T10:07:05;20.77;;;14.30;;
6519;SDS011;3293;51.690;5.982;2023-04-06T10:12:07;20.63;;;13.70;;
6519;SDS011;3293;51.690;5.982;2023-04-06T10:17:07;20.43;;;13.00;;
6519;SDS011;3293;51.690;5.982;2023-04-06T10:22:08;22.13;;;14.40;;
6519;SDS011;3293;51.690;5.982;2023-04-06T10:27:12;18.07;;;13.07;;
6519;SDS011;3293;51.690;5.982;2023-04-06T10:32:12;21.00;;;12.90;;
6519;SDS011;3293;51.690;5.982;2023-04-06T10:37:15;18.17;;;12.70;;
6519;SDS011;3293;51.690;5.982;2023-04-06T10:42:17;17.87;;;12.23;;
6519;SDS011;3293;51.690;5.982;2023-04-06T10:47:17;20.50;;;13.37;;
6519;SDS011;3293;51.690;5.982;2023-04-06T10:52:17;15.77;;;12.27;;
6519;SDS011;3293;51.690;5.982;2023-04-06T10:57:17;17.57;;;12.33;;
6519;SDS011;3293;51.690;5.982;2023-04-06T11:02:28;26.57;;;12.80;;
6519;SDS011;3293;51.690;5.982;2023-04-06T11:07:28;16.80;;;12.43;;
6519;SDS011;3293;51.690;5.982;2023-04-06T11:12:29;16.87;;;12.80;;
6519;SDS011;3293;51.690;5.982;2023-04-06T11:17:31;21.27;;;12.67;;
6519;SDS011;3293;51.690;5.982;2023-04-06T11:22:33;19.37;;;12.40;;
6519;SDS011;3293;51.690;5.982;2023-04-06T11:27:33;15.03;;;11.10;;
6519;SDS011;3293;51.690;5.982;2023-04-06T11:32:41;15.33;;;10.27;;
6519;SDS011;3293;51.690;5.982;2023-04-06T11:37:42;13.33;;;9.70;;
6519;SDS011;3293;51.690;5.982;2023-04-06T11:42:43;14.80;;;9.60;;
6519;SDS011;3293;51.690;5.982;2023-04-06T11:47:59;10.63;;;8.50;;
6519;SDS011;3293;51.690;5.982;2023-04-06T11:53:00;11.53;;;7.87;;
6519;SDS011;3293;51.690;5.982;2023-04-06T11:58:01;11.63;;;7.77;;
6519;SDS011;3293;51.690;5.982;2023-04-06T12:03:02;10.93;;;7.73;;
6519;SDS011;3293;51.690;5.982;2023-04-06T12:08:02;9.33;;;6.50;;
6519;SDS011;3293;51.690;5.982;2023-04-06T12:13:05;10.30;;;6.47;;
6519;SDS011;3293;51.690;5.982;2023-04-06T12:18:05;7.63;;;6.60;;
6519;SDS011;3293;51.690;5.982;2023-04-06T12:23:05;7.03;;;6.33;;
6519;SDS011;3293;51.690;5.982;2023-04-06T12:28:06;8.33;;;6.67;;
6519;SDS011;3293;51.690;5.982;2023-04-06T12:33:06;9.77;;;7.33;;
6519;SDS011;3293;51.690;5.982;2023-04-06T12:38:06;12.07;;;9.13;;
6519;SDS011;3293;51.690;5.982;2023-04-06T12:43:07;13.00;;;8.40;;
6519;SDS011;3293;51.690;5.982;2023-04-06T12:48:08;10.63;;;7.80;;
6519;SDS011;3293;51.690;5.982;2023-04-06T12:53:08;12.60;;;9.50;;
6519;SDS011;3293;51.690;5.982;2023-04-06T12:58:08;12.50;;;8.13;;
6519;SDS011;3293;51.690;5.982;2023-04-06T13:03:08;10.27;;;8.07;;
6519;SDS011;3293;51.690;5.982;2023-04-06T13:08:08;12.83;;;8.80;;
6519;SDS011;3293;51.690;5.982;2023-04-06T13:13:08;12.83;;;9.60;;
6519;SDS011;3293;51.690;5.982;2023-04-06T13:18:08;11.90;;;8.27;;
6519;SDS011;3293;51.690;5.982;2023-04-06T13:23:08;14.13;;;9.63;;
6519;SDS011;3293;51.690;5.982;2023-04-06T13:28:09;13.87;;;10.03;;
6519;SDS011;3293;51.690;5.982;2023-04-06T13:33:09;13.53;;;9.13;;
6519;SDS011;3293;51.690;5.982;2023-04-06T13:38:10;12.77;;;9.77;;
6519;SDS011;3293;51.690;5.982;2023-04-06T13:43:10;12.90;;;10.03;;
6519;SDS011;3293;51.690;5.982;2023-04-06T13:48:10;13.40;;;10.27;;
6519;SDS011;3293;51.690;5.982;2023-04-06T13:53:10;14.93;;;10.27;;
6519;SDS011;3293;51.690;5.982;2023-04-06T13:58:11;14.43;;;10.03;;
6519;SDS011;3293;51.690;5.982;2023-04-06T14:03:11;14.93;;;9.97;;
6519;SDS011;3293;51.690;5.982;2023-04-06T14:08:12;11.03;;;8.70;;
6519;SDS011;3293;51.690;5.982;2023-04-06T14:13:12;12.80;;;8.20;;
6519;SDS011;3293;51.690;5.982;2023-04-06T14:18:12;11.50;;;8.67;;
6519;SDS011;3293;51.690;5.982;2023-04-06T14:23:12;9.63;;;7.90;;
6519;SDS011;3293;51.690;5.982;2023-04-06T14:28:12;13.43;;;8.63;;
6519;SDS011;3293;51.690;5.982;2023-04-06T14:33:12;12.67;;;9.27;;
6519;SDS011;3293;51.690;5.982;2023-04-06T14:38:12;11.93;;;9.20;;
6519;SDS011;3293;51.690;5.982;2023-04-06T14:43:12;10.37;;;8.67;;
6519;SDS011;3293;51.690;5.982;2023-04-06T14:48:12;11.50;;;8.83;;
6519;SDS011;3293;51.690;5.982;2023-04-06T14:53:12;14.07;;;10.00;;
6519;SDS011;3293;51.690;5.982;2023-04-06T14:58:13;14.47;;;10.83;;
6519;SDS011;3293;51.690;5.982;2023-04-06T15:03:13;16.47;;;11.63;;
6519;SDS011;3293;51.690;5.982;2023-04-06T15:08:13;18.67;;;11.97;;
6519;SDS011;3293;51.690;5.982;2023-04-06T15:13:14;18.03;;;12.70;;
6519;SDS011;3293;51.690;5.982;2023-04-06T15:18:15;16.37;;;13.53;;
6519;SDS011;3293;51.690;5.982;2023-04-06T15:23:15;22.10;;;13.57;;
6519;SDS011;3293;51.690;5.982;2023-04-06T15:28:15;19.53;;;13.17;;
6519;SDS011;3293;51.690;5.982;2023-04-06T15:33:15;21.27;;;15.17;;
6519;SDS011;3293;51.690;5.982;2023-04-06T15:38:15;21.27;;;14.70;;
6519;SDS011;3293;51.690;5.982;2023-04-06T15:43:15;23.67;;;14.50;;
6519;SDS011;3293;51.690;5.982;2023-04-06T15:48:16;17.93;;;13.27;;
6519;SDS011;3293;51.690;5.982;2023-04-06T15:53:17;24.73;;;15.43;;
6519;SDS011;3293;51.690;5.982;2023-04-06T15:58:18;21.17;;;13.97;;
6519;SDS011;3293;51.690;5.982;2023-04-06T16:03:18;23.87;;;15.50;;
6519;SDS011;3293;51.690;5.982;2023-04-06T16:08:19;21.20;;;14.83;;
6519;SDS011;3293;51.690;5.982;2023-04-06T16:13:19;29.00;;;16.80;;
6519;SDS011;3293;51.690;5.982;2023-04-06T16:18:19;20.70;;;15.30;;
6519;SDS011;3293;51.690;5.982;2023-04-06T16:23:20;24.17;;;17.00;;
6519;SDS011;3293;51.690;5.982;2023-04-06T16:28:20;22.10;;;16.17;;
6519;SDS011;3293;51.690;5.982;2023-04-06T16:33:22;26.90;;;15.90;;
6519;SDS011;3293;51.690;5.982;2023-04-06T16:38:22;24.10;;;16.83;;
6519;SDS011;3293;51.690;5.982;2023-04-06T16:43:23;22.27;;;16.03;;
6519;SDS011;3293;51.690;5.982;2023-04-06T16:48:24;26.93;;;17.13;;
6519;SDS011;3293;51.690;5.982;2023-04-06T16:53:24;22.67;;;15.57;;
6519;SDS011;3293;51.690;5.982;2023-04-06T16:58:24;23.00;;;16.00;;
6519;SDS011;3293;51.690;5.982;2023-04-06T17:03:24;22.00;;;15.17;;
6519;SDS011;3293;51.690;5.982;2023-04-06T17:08:25;20.03;;;14.87;;
6519;SDS011;3293;51.690;5.982;2023-04-06T17:13:25;19.60;;;14.33;;
6519;SDS011;3293;51.690;5.982;2023-04-06T17:18:25;20.03;;;14.40;;
6519;SDS011;3293;51.690;5.982;2023-04-06T17:23:28;19.90;;;14.40;;
6519;SDS011;3293;51.690;5.982;2023-04-06T17:28:29;18.37;;;13.97;;
6519;SDS011;3293;51.690;5.982;2023-04-06T17:33:30;18.90;;;14.10;;
6519;SDS011;3293;51.690;5.982;2023-04-06T17:38:32;19.33;;;13.43;;
6519;SDS011;3293;51.690;5.982;2023-04-06T17:43:32;19.33;;;13.37;;
6519;SDS011;3293;51.690;5.982;2023-04-06T17:48:32;18.50;;;13.70;;
6519;SDS011;3293;51.690;5.982;2023-04-06T17:53:33;21.10;;;14.47;;
6519;SDS011;3293;51.690;5.982;2023-04-06T17:58:34;18.63;;;14.20;;
6519;SDS011;3293;51.690;5.982;2023-04-06T18:03:35;18.00;;;14.00;;
6519;SDS011;3293;51.690;5.982;2023-04-06T18:08:38;22.87;;;15.37;;
6519;SDS011;3293;51.690;5.982;2023-04-06T18:13:39;18.80;;;14.33;;
6519;SDS011;3293;51.690;5.982;2023-04-06T18:18:39;23.33;;;16.30;;
6519;SDS011;3293;51.690;5.982;2023-04-06T18:23:39;21.00;;;14.70;;
6519;SDS011;3293;51.690;5.982;2023-04-06T18:28:39;19.53;;;15.83;;
6519;SDS011;3293;51.690;5.982;2023-04-06T18:33:40;20.00;;;14.63;;
6519;SDS011;3293;51.690;5.982;2023-04-06T18:38:41;18.50;;;15.73;;
6519;SDS011;3293;51.690;5.982;2023-04-06T18:43:42;25.27;;;16.37;;
6519;SDS011;3293;51.690;5.982;2023-04-06T18:48:42;19.30;;;14.83;;
6519;SDS011;3293;51.690;5.982;2023-04-06T18:53:43;19.07;;;14.50;;
6519;SDS011;3293;51.690;5.982;2023-04-06T18:58:43;17.93;;;14.30;;
6519;SDS011;3293;51.690;5.982;2023-04-06T19:03:44;17.37;;;14.73;;
6519;SDS011;3293;51.690;5.982;2023-04-06T19:08:45;18.10;;;14.00;;
6519;SDS011;3293;51.690;5.982;2023-04-06T19:13:46;19.90;;;16.47;;
6519;SDS011;3293;51.690;5.982;2023-04-06T19:18:48;19.87;;;15.17;;
6519;SDS011;3293;51.690;5.982;2023-04-06T19:23:49;18.53;;;15.87;;
6519;SDS011;3293;51.690;5.982;2023-04-06T19:28:50;20.90;;;16.40;;
6519;SDS011;3293;51.690;5.982;2023-04-06T19:33:51;19.07;;;16.63;;
6519;SDS011;3293;51.690;5.982;2023-04-06T19:38:51;21.20;;;16.67;;
6519;SDS011;3293;51.690;5.982;2023-04-06T19:43:52;19.90;;;16.60;;
6519;SDS011;3293;51.690;5.982;2023-04-06T19:48:52;21.60;;;17.83;;
6519;SDS011;3293;51.690;5.982;2023-04-06T19:53:52;23.93;;;18.43;;
6519;SDS011;3293;51.690;5.982;2023-04-06T19:58:51;23.77;;;19.07;;
6519;SDS011;3293;51.690;5.982;2023-04-06T20:03:52;23.97;;;20.80;;
6519;SDS011;3293;51.690;5.982;2023-04-06T20:08:52;22.87;;;19.47;;
6519;SDS011;3293;51.690;5.982;2023-04-06T20:13:52;23.43;;;18.93;;
6519;SDS011;3293;51.690;5.982;2023-04-06T20:18:52;27.27;;;21.30;;
6519;SDS011;3293;51.690;5.982;2023-04-06T20:23:53;26.87;;;20.77;;
6519;SDS011;3293;51.690;5.982;2023-04-06T20:28:53;25.10;;;21.00;;
6519;SDS011;3293;51.690;5.982;2023-04-06T20:33:54;27.97;;;21.00;;
6519;SDS011;3293;51.690;5.982;2023-04-06T20:38:55;26.37;;;20.60;;
6519;SDS011;3293;51.690;5.982;2023-04-06T20:43:55;26.73;;;21.07;;
6519;SDS011;3293;51.690;5.982;2023-04-06T20:48:56;30.30;;;22.93;;
6519;SDS011;3293;51.690;5.982;2023-04-06T20:53:57;30.03;;;23.60;;
6519;SDS011;3293;51.690;5.982;2023-04-06T20:59:00;28.37;;;22.70;;
6519;SDS011;3293;51.690;5.982;2023-04-06T21:04:04;29.20;;;22.30;;
6519;SDS011;3293;51.690;5.982;2023-04-06T21:09:05;28.97;;;21.47;;
6519;SDS011;3293;51.690;5.982;2023-04-06T21:14:07;29.77;;;23.70;;
6519;SDS011;3293;51.690;5.982;2023-04-06T21:19:07;29.27;;;23.13;;
6519;SDS011;3293;51.690;5.982;2023-04-06T21:24:08;30.07;;;22.53;;
6519;SDS011;3293;51.690;5.982;2023-04-06T21:29:10;30.77;;;22.77;;
6519;SDS011;3293;51.690;5.982;2023-04-06T21:34:10;29.23;;;23.20;;
6519;SDS011;3293;51.690;5.982;2023-04-06T21:39:11;28.47;;;20.80;;
6519;SDS011;3293;51.690;5.982;2023-04-06T21:44:12;28.07;;;22.83;;
6519;SDS011;3293;51.690;5.982;2023-04-06T21:49:12;34.20;;;25.07;;
6519;SDS011;3293;51.690;5.982;2023-04-06T21:54:12;28.30;;;22.90;;
6519;SDS011;3293;51.690;5.982;2023-04-06T21:59:12;33.27;;;24.07;;
6519;SDS011;3293;51.690;5.982;2023-04-06T22:04:14;31.03;;;24.10;;
6519;SDS011;3293;51.690;5.982;2023-04-06T22:09:16;34.23;;;25.13;;
6519;SDS011;3293;51.690;5.982;2023-04-06T22:14:15;36.00;;;26.47;;
6519;SDS011;3293;51.690;5.982;2023-04-06T22:19:17;35.87;;;26.33;;
6519;SDS011;3293;51.690;5.982;2023-04-06T22:24:17;39.03;;;28.47;;
6519;SDS011;3293;51.690;5.982;2023-04-06T22:29:17;41.67;;;29.67;;
6519;SDS011;3293;51.690;5.982;2023-04-06T22:34:17;40.57;;;31.13;;
6519;SDS011;3293;51.690;5.982;2023-04-06T22:39:16;48.23;;;31.20;;
6519;SDS011;3293;51.690;5.982;2023-04-06T22:44:17;47.87;;;32.70;;
6519;SDS011;3293;51.690;5.982;2023-04-06T22:49:18;54.10;;;34.97;;
6519;SDS011;3293;51.690;5.982;2023-04-06T22:54:19;55.43;;;36.67;;
6519;SDS011;3293;51.690;5.982;2023-04-06T22:59:19;70.63;;;38.47;;
6519;SDS011;3293;51.690;5.982;2023-04-06T23:04:18;71.93;;;39.47;;
6519;SDS011;3293;51.690;5.982;2023-04-06T23:09:18;79.70;;;41.20;;
6519;SDS011;3293;51.690;5.982;2023-04-06T23:14:19;77.23;;;40.07;;
6519;SDS011;3293;51.690;5.982;2023-04-06T23:19:19;73.90;;;38.50;;
6519;SDS011;3293;51.690;5.982;2023-04-06T23:24:19;77.60;;;38.13;;
6519;SDS011;3293;51.690;5.982;2023-04-06T23:29:19;76.40;;;37.33;;
6519;SDS011;3293;51.690;5.982;2023-04-06T23:34:20;73.50;;;37.30;;
6519;SDS011;3293;51.690;5.982;2023-04-06T23:39:20;67.43;;;31.73;;
6519;SDS011;3293;51.690;5.982;2023-04-06T23:44:20;63.20;;;33.40;;
6519;SDS011;3293;51.690;5.982;2023-04-06T23:49:20;54.40;;;28.97;;
6519;SDS011;3293;51.690;5.982;2023-04-06T23:54:20;55.07;;;27.80;;
6519;SDS011;3293;51.690;5.982;2023-04-06T23:59:20;46.27;;;24.13;;
